createdAt,value
2019-03-26T00:00:50.705Z,4.89
2019-03-26T00:03:20.341Z,4.86
2019-03-26T00:05:49.987Z,4.83
2019-03-26T00:08:19.660Z,4.76
2019-03-26T00:10:49.189Z,4.57
2019-03-26T00:13:18.785Z,4.58
2019-03-26T00:15:48.423Z,4.66
2019-03-26T00:18:18.019Z,4.67
2019-03-26T00:20:47.709Z,4.76
2019-03-26T00:23:17.375Z,4.69
2019-03-26T00:25:49.251Z,4.63
2019-03-26T00:28:18.966Z,4.65
2019-03-26T00:30:48.627Z,4.74
2019-03-26T00:33:18.512Z,4.53
2019-03-26T00:35:48.099Z,4.57
2019-03-26T00:38:17.747Z,4.57
2019-03-26T00:40:47.333Z,4.45
2019-03-26T00:43:16.921Z,4.40
2019-03-26T00:45:46.944Z,4.40
2019-03-26T00:48:16.587Z,4.43
2019-03-26T00:50:46.187Z,3.97
2019-03-26T00:53:15.875Z,3.94
2019-03-26T00:55:45.641Z,3.92
2019-03-26T00:58:15.363Z,3.57
2019-03-26T01:00:45.305Z,3.44
2019-03-26T01:03:15.047Z,3.46
2019-03-26T01:05:44.747Z,3.35
2019-03-26T01:08:14.600Z,3.43
2019-03-26T01:10:44.190Z,3.35
2019-03-26T01:13:13.895Z,3.32
2019-03-26T01:15:43.487Z,3.27
2019-03-26T01:18:13.229Z,3.15
2019-03-26T01:20:42.952Z,2.93
2019-03-26T01:23:12.532Z,3.01
2019-03-26T01:25:42.170Z,2.90
2019-03-26T01:28:11.822Z,2.81
2019-03-26T01:30:41.474Z,2.73
2019-03-26T01:33:13.186Z,2.82
2019-03-26T01:35:42.867Z,2.65
2019-03-26T01:38:12.452Z,2.75
2019-03-26T01:40:42.227Z,2.81
2019-03-26T01:43:11.945Z,2.75
2019-03-26T01:45:41.727Z,2.71
2019-03-26T01:48:11.434Z,2.79
2019-03-26T01:50:41.139Z,3.01
2019-03-26T01:53:10.893Z,3.00
2019-03-26T01:55:40.912Z,2.96
2019-03-26T01:58:11.925Z,2.74
2019-03-26T02:00:41.609Z,2.95
2019-03-26T02:03:13.104Z,3.11
2019-03-26T02:05:43.029Z,3.17
2019-03-26T02:08:15.795Z,3.05
2019-03-26T02:10:47.732Z,3.09
2019-03-26T02:13:17.741Z,3.00
2019-03-26T02:15:47.513Z,3.01
2019-03-26T02:18:17.162Z,2.90
2019-03-26T02:20:47.184Z,2.76
2019-03-26T02:23:17.196Z,2.79
2019-03-26T02:25:47.150Z,2.87
2019-03-26T02:28:17.018Z,2.74
2019-03-26T02:30:47.114Z,2.90
2019-03-26T02:33:16.974Z,2.61
2019-03-26T02:35:46.821Z,2.57
2019-03-26T02:38:17.091Z,2.50
2019-03-26T02:40:46.870Z,2.51
2019-03-26T02:43:16.847Z,2.57
2019-03-26T02:45:46.904Z,2.48
2019-03-26T02:48:17.090Z,2.39
2019-03-26T02:50:47.289Z,2.43
2019-03-26T02:53:17.718Z,2.55
2019-03-26T02:55:48.301Z,2.63
2019-03-26T02:58:18.613Z,2.61
2019-03-26T03:00:49.117Z,2.78
2019-03-26T03:03:20.474Z,2.75
2019-03-26T03:05:50.528Z,2.78
2019-03-26T03:08:20.527Z,2.78
2019-03-26T03:10:50.442Z,2.65
2019-03-26T03:13:20.328Z,2.61
2019-03-26T03:15:50.342Z,2.66
2019-03-26T03:18:21.182Z,2.57
2019-03-26T03:20:53.006Z,2.34
2019-03-26T03:23:22.781Z,2.37
2019-03-26T03:25:57.355Z,2.56
2019-03-26T03:28:29.220Z,2.63
2019-03-26T03:30:59.048Z,2.64
2019-03-26T03:33:31.266Z,2.57
2019-03-26T03:36:01.345Z,2.38
2019-03-26T03:38:31.311Z,2.40
2019-03-26T03:41:01.566Z,2.45
2019-03-26T03:43:31.452Z,2.49
2019-03-26T03:46:01.346Z,2.42
2019-03-26T03:48:31.026Z,2.39
2019-03-26T03:51:00.609Z,2.37
2019-03-26T03:53:34.261Z,2.23
2019-03-26T03:56:04.120Z,2.18
2019-03-26T03:58:34.759Z,2.17
2019-03-26T04:01:04.437Z,2.01
2019-03-26T04:03:35.427Z,2.22
2019-03-26T04:06:09.470Z,2.04
2019-03-26T04:08:40.313Z,2.00
2019-03-26T04:11:09.927Z,1.98
2019-03-26T04:13:41.022Z,1.92
2019-03-26T04:16:11.441Z,1.79
2019-03-26T04:18:43.229Z,1.22
2019-03-26T04:21:12.800Z,1.29
2019-03-26T04:23:43.768Z,1.50
2019-03-26T04:26:14.463Z,1.30
2019-03-26T04:28:44.915Z,1.32
2019-03-26T04:31:14.532Z,1.37
2019-03-26T04:33:45.940Z,1.43
2019-03-26T04:36:25.667Z,1.37
2019-03-26T04:38:46.969Z,1.45
2019-03-26T04:41:16.717Z,1.43
2019-03-26T04:43:47.688Z,1.32
2019-03-26T04:46:17.398Z,1.14
2019-03-26T04:48:47.058Z,1.28
2019-03-26T04:51:16.724Z,0.58
2019-03-26T04:53:46.450Z,1.00
2019-03-26T04:56:16.028Z,0.92
2019-03-26T04:58:49.579Z,0.86
2019-03-26T05:01:19.255Z,0.94
2019-03-26T05:03:50.062Z,1.03
2019-03-26T05:06:19.872Z,1.02
2019-03-26T05:08:51.762Z,0.93
2019-03-26T05:11:21.438Z,0.78
2019-03-26T05:13:54.048Z,0.94
2019-03-26T05:16:25.724Z,0.55
2019-03-26T05:18:57.601Z,0.36
2019-03-26T05:21:27.286Z,0.65
2019-03-26T05:23:58.117Z,0.66
2019-03-26T05:26:27.885Z,0.83
2019-03-26T05:29:02.332Z,0.69
2019-03-26T05:31:32.836Z,0.91
2019-03-26T05:34:05.097Z,0.95
2019-03-26T05:36:34.712Z,0.74
2019-03-26T05:39:05.803Z,0.76
2019-03-26T05:41:35.389Z,0.67
2019-03-26T05:44:05.678Z,0.71
2019-03-26T05:46:35.651Z,0.91
2019-03-26T05:49:09.114Z,1.22
2019-03-26T05:51:39.865Z,1.19
2019-03-26T05:54:09.532Z,1.18
2019-03-26T05:56:39.181Z,1.19
2019-03-26T05:59:08.828Z,1.22
2019-03-26T06:01:44.300Z,0.84
2019-03-26T06:04:13.942Z,1.12
2019-03-26T06:06:45.968Z,0.79
2019-03-26T06:09:15.553Z,1.28
2019-03-26T06:11:46.572Z,0.97
2019-03-26T06:14:22.906Z,1.01
2019-03-26T06:16:52.747Z,0.99
2019-03-26T06:19:22.433Z,0.90
2019-03-26T06:21:53.444Z,1.31
2019-03-26T06:24:23.365Z,1.89
2019-03-26T06:26:53.017Z,1.52
2019-03-26T06:29:22.684Z,1.57
2019-03-26T06:31:53.981Z,1.90
2019-03-26T06:34:23.849Z,2.25
2019-03-26T06:36:53.500Z,2.61
2019-03-26T06:39:23.411Z,2.85
2019-03-26T06:41:54.353Z,2.98
2019-03-26T06:44:23.985Z,2.90
2019-03-26T06:46:53.642Z,3.52
2019-03-26T06:49:23.469Z,3.42
2019-03-26T06:51:53.169Z,3.13
2019-03-26T06:54:22.694Z,2.68
2019-03-26T06:56:52.434Z,2.90
2019-03-26T06:59:22.080Z,2.81
2019-03-26T07:01:51.735Z,3.14
2019-03-26T07:04:21.352Z,3.66
2019-03-26T07:06:52.064Z,4.86
2019-03-26T07:09:21.788Z,4.55
2019-03-26T07:11:51.561Z,4.37
2019-03-26T07:14:21.103Z,4.61
2019-03-26T07:16:50.732Z,4.97
2019-03-26T07:19:20.461Z,4.60
2019-03-26T07:21:50.208Z,5.17
2019-03-26T07:24:19.930Z,6.06
2019-03-26T07:26:49.570Z,6.54
2019-03-26T07:29:19.176Z,6.39
2019-03-26T07:31:48.810Z,5.84
2019-03-26T07:34:18.528Z,6.32
2019-03-26T07:36:48.267Z,6.06
2019-03-26T07:39:18.000Z,6.32
2019-03-26T07:41:47.678Z,6.33
2019-03-26T07:44:17.425Z,6.74
2019-03-26T07:46:47.093Z,6.73
2019-03-26T07:49:16.776Z,6.81
2019-03-26T07:51:48.096Z,6.80
2019-03-26T07:54:18.420Z,7.08
2019-03-26T07:56:48.096Z,7.20
2019-03-26T07:59:17.858Z,7.39
2019-03-26T08:01:47.848Z,8.35
2019-03-26T08:04:17.549Z,8.07
2019-03-26T08:06:47.212Z,7.93
2019-03-26T08:09:17.204Z,7.70
2019-03-26T08:11:46.993Z,7.25
2019-03-26T08:14:18.132Z,7.62
2019-03-26T08:16:48.075Z,8.69
2019-03-26T08:19:17.693Z,7.75
2019-03-26T08:21:49.088Z,8.15
2019-03-26T08:24:19.758Z,8.33
2019-03-26T08:26:52.249Z,10.04
2019-03-26T08:29:22.555Z,8.77
2019-03-26T08:31:53.707Z,9.92
2019-03-26T08:34:23.379Z,10.58
2019-03-26T08:36:52.989Z,11.23
2019-03-26T08:39:23.665Z,11.06
2019-03-26T08:41:55.050Z,9.79
2019-03-26T08:44:24.800Z,9.42
2019-03-26T08:46:54.691Z,9.65
2019-03-26T08:49:30.622Z,9.11
2019-03-26T08:51:59.520Z,9.42
2019-03-26T08:54:29.504Z,9.52
2019-03-26T08:57:01.227Z,9.48
2019-03-26T08:59:30.889Z,9.17
2019-03-26T09:02:01.477Z,8.42
2019-03-26T09:04:31.087Z,8.11
2019-03-26T09:07:00.691Z,7.96
2019-03-26T09:09:30.307Z,7.55
2019-03-26T09:11:59.910Z,7.38
2019-03-26T09:14:29.505Z,7.33
2019-03-26T09:16:59.491Z,7.70
2019-03-26T09:19:29.089Z,7.45
2019-03-26T09:21:58.705Z,7.58
2019-03-26T09:24:30.641Z,7.39
2019-03-26T09:27:00.234Z,7.41
2019-03-26T09:29:29.785Z,7.23
2019-03-26T09:32:00.834Z,7.35
2019-03-26T09:34:30.451Z,7.21
2019-03-26T09:37:00.045Z,7.34
2019-03-26T09:39:29.712Z,7.41
2019-03-26T09:41:59.368Z,7.15
2019-03-26T09:44:28.974Z,6.84
2019-03-26T09:46:58.629Z,7.09
2019-03-26T09:49:28.315Z,7.24
2019-03-26T09:51:58.545Z,7.18
2019-03-26T09:54:28.746Z,7.28
2019-03-26T09:57:01.351Z,7.44
2019-03-26T09:59:32.106Z,7.74
2019-03-26T10:02:01.837Z,7.31
2019-03-26T10:04:32.568Z,7.33
2019-03-26T10:07:02.132Z,7.28
2019-03-26T10:09:31.770Z,7.54
2019-03-26T10:12:01.693Z,7.60
2019-03-26T10:14:31.415Z,7.73
2019-03-26T10:17:01.017Z,7.51
2019-03-26T10:19:30.709Z,7.97
2019-03-26T10:22:01.927Z,7.74
2019-03-26T10:24:31.551Z,7.76
2019-03-26T10:27:01.428Z,8.18
2019-03-26T10:29:31.380Z,8.08
2019-03-26T10:32:03.928Z,8.08
2019-03-26T10:34:36.451Z,8.22
2019-03-26T10:37:05.147Z,8.81
2019-03-26T10:39:34.753Z,7.91
2019-03-26T10:42:07.082Z,8.64
2019-03-26T10:44:36.822Z,8.94
2019-03-26T10:47:06.474Z,8.99
2019-03-26T10:49:36.430Z,8.07
2019-03-26T10:52:07.300Z,8.67
2019-03-26T10:54:36.902Z,8.65
2019-03-26T10:57:06.723Z,8.54
2019-03-26T10:59:36.376Z,8.92
2019-03-26T11:02:06.863Z,8.85
2019-03-26T11:04:36.541Z,8.62
2019-03-26T11:07:07.892Z,8.57
2019-03-26T11:09:37.456Z,8.94
2019-03-26T11:12:11.314Z,9.16
2019-03-26T11:14:40.885Z,8.65
2019-03-26T11:17:14.665Z,9.15
2019-03-26T11:19:46.342Z,9.08
2019-03-26T11:22:16.894Z,8.86
2019-03-26T11:24:48.600Z,8.70
2019-03-26T11:27:18.990Z,9.17
2019-03-26T11:29:48.559Z,9.13
2019-03-26T11:32:20.842Z,9.69
2019-03-26T11:34:50.452Z,10.00
2019-03-26T11:37:20.108Z,9.86
2019-03-26T11:39:49.689Z,9.74
2019-03-26T11:42:22.369Z,10.39
2019-03-26T11:44:52.267Z,9.50
2019-03-26T11:47:23.310Z,10.20
2019-03-26T11:49:53.724Z,9.82
2019-03-26T11:52:26.407Z,9.89
2019-03-26T11:54:58.161Z,10.54
2019-03-26T11:57:28.147Z,10.82
2019-03-26T11:59:59.828Z,10.96
2019-03-26T12:02:34.267Z,12.11
2019-03-26T12:05:07.535Z,13.33
2019-03-26T12:07:37.570Z,13.43
2019-03-26T12:10:07.945Z,12.56
2019-03-26T12:12:38.857Z,10.71
2019-03-26T12:15:08.533Z,10.79
2019-03-26T12:17:38.246Z,9.83
2019-03-26T12:20:08.616Z,10.66
2019-03-26T12:22:41.434Z,10.34
2019-03-26T12:25:11.058Z,11.26
2019-03-26T12:27:40.681Z,12.13
2019-03-26T12:30:10.249Z,11.76
2019-03-26T12:32:41.456Z,12.21
2019-03-26T12:35:14.050Z,10.81
2019-03-26T12:37:43.871Z,11.21
2019-03-26T12:40:16.147Z,11.35
2019-03-26T12:42:51.776Z,11.02
2019-03-26T12:45:21.827Z,12.29
2019-03-26T12:47:53.045Z,11.22
2019-03-26T12:50:24.810Z,11.65
2019-03-26T12:52:58.115Z,12.40
2019-03-26T12:55:28.509Z,12.12
2019-03-26T12:57:58.662Z,12.98
2019-03-26T13:00:32.930Z,12.46
2019-03-26T13:03:04.044Z,12.46
2019-03-26T13:05:33.626Z,12.04
2019-03-26T13:08:05.549Z,13.00
2019-03-26T13:10:35.120Z,13.03
2019-03-26T13:13:06.322Z,12.82
2019-03-26T13:15:35.940Z,12.57
2019-03-26T13:18:11.183Z,12.44
2019-03-26T13:20:40.656Z,11.68
2019-03-26T13:23:13.136Z,12.27
2019-03-26T13:25:42.760Z,12.27
2019-03-26T13:28:12.346Z,12.29
2019-03-26T13:30:41.975Z,11.57
2019-03-26T13:33:12.827Z,10.95
2019-03-26T13:35:42.404Z,10.64
2019-03-26T13:38:12.031Z,10.88
2019-03-26T13:40:41.734Z,10.79
2019-03-26T13:43:13.366Z,10.61
2019-03-26T13:45:44.334Z,11.48
2019-03-26T13:48:13.998Z,11.07
2019-03-26T13:50:43.690Z,11.27
2019-03-26T13:53:15.041Z,12.05
2019-03-26T13:55:46.669Z,11.93
2019-03-26T13:58:16.319Z,12.08
2019-03-26T14:00:45.991Z,10.78
2019-03-26T14:03:16.830Z,10.89
2019-03-26T14:05:46.366Z,11.48
2019-03-26T14:08:16.004Z,11.36
2019-03-26T14:10:45.669Z,11.74
2019-03-26T14:13:15.325Z,11.89
2019-03-26T14:15:45.327Z,12.00
2019-03-26T14:18:14.923Z,12.19
2019-03-26T14:20:44.566Z,11.59
2019-03-26T14:23:14.143Z,11.34
2019-03-26T14:25:43.946Z,11.46
2019-03-26T14:28:13.612Z,11.74
2019-03-26T14:30:44.615Z,12.02
2019-03-26T14:33:14.258Z,12.45
2019-03-26T14:35:46.514Z,12.39
2019-03-26T14:38:16.104Z,12.21
2019-03-26T14:40:54.545Z,10.71
2019-03-26T14:43:17.013Z,11.00
2019-03-26T14:45:46.866Z,11.07
2019-03-26T14:48:17.015Z,11.65
2019-03-26T14:50:51.339Z,11.08
2019-03-26T14:53:20.918Z,11.53
2019-03-26T14:55:50.558Z,11.52
2019-03-26T14:58:20.172Z,11.50
2019-03-26T15:00:49.787Z,10.42
2019-03-26T15:03:19.432Z,9.92
2019-03-26T15:05:49.152Z,9.82
2019-03-26T15:08:18.864Z,10.29
2019-03-26T15:10:49.457Z,10.47
2019-03-26T15:13:19.296Z,10.26
2019-03-26T15:15:49.112Z,10.43
2019-03-26T15:18:18.767Z,11.02
2019-03-26T15:20:48.494Z,11.21
2019-03-26T15:23:18.088Z,11.15
2019-03-26T15:25:48.650Z,11.40
2019-03-26T15:28:18.262Z,11.39
2019-03-26T15:30:47.913Z,11.72
2019-03-26T15:33:17.544Z,11.48
2019-03-26T15:35:48.053Z,11.49
2019-03-26T15:38:17.599Z,11.52
2019-03-26T15:40:47.178Z,11.29
2019-03-26T15:43:18.010Z,11.42
2019-03-26T15:45:48.690Z,10.73
2019-03-26T15:48:18.309Z,10.56
2019-03-26T15:50:47.963Z,10.28
2019-03-26T15:53:18.807Z,10.68
2019-03-26T15:55:48.403Z,10.76
2019-03-26T15:58:17.988Z,10.82
2019-03-26T16:00:47.571Z,10.79
2019-03-26T16:03:17.758Z,10.96
2019-03-26T16:05:47.435Z,10.46
2019-03-26T16:08:17.102Z,9.69
2019-03-26T16:10:46.754Z,10.02
2019-03-26T16:13:16.563Z,9.93
2019-03-26T16:15:46.172Z,9.94
2019-03-26T16:18:16.123Z,10.50
2019-03-26T16:20:45.778Z,10.06
2019-03-26T16:23:15.380Z,9.69
2019-03-26T16:25:47.097Z,9.49
2019-03-26T16:28:16.982Z,9.55
2019-03-26T16:30:46.578Z,9.64
2019-03-26T16:33:18.057Z,9.84
2019-03-26T16:35:49.002Z,9.82
2019-03-26T16:38:19.914Z,9.49
2019-03-26T16:41:00.589Z,9.71
2019-03-26T16:43:31.612Z,9.30
2019-03-26T16:46:01.300Z,9.22
2019-03-26T16:48:30.981Z,9.43
2019-03-26T16:51:00.591Z,9.35
2019-03-26T16:53:30.166Z,9.65
2019-03-26T16:55:59.965Z,9.96
2019-03-26T16:58:29.522Z,9.39
2019-03-26T17:00:59.238Z,9.55
2019-03-26T17:03:31.864Z,9.82
2019-03-26T17:06:01.658Z,9.60
2019-03-26T17:08:32.465Z,9.39
2019-03-26T17:11:02.035Z,9.38
2019-03-26T17:13:34.222Z,8.90
2019-03-26T17:16:06.012Z,9.05
2019-03-26T17:18:36.161Z,9.05
2019-03-26T17:21:06.666Z,8.87
2019-03-26T17:23:36.278Z,8.63
2019-03-26T17:26:08.108Z,8.49
2019-03-26T17:28:37.839Z,8.49
2019-03-26T17:31:07.681Z,8.41
2019-03-26T17:33:38.477Z,8.34
2019-03-26T17:36:09.124Z,8.32
2019-03-26T17:38:38.640Z,8.02
2019-03-26T17:41:08.212Z,8.07
2019-03-26T17:43:37.846Z,7.97
2019-03-26T17:46:09.782Z,7.96
2019-03-26T17:48:39.388Z,8.05
2019-03-26T17:51:10.060Z,7.99
2019-03-26T17:53:42.233Z,7.97
2019-03-26T17:56:11.987Z,7.88
2019-03-26T17:58:41.531Z,7.88
2019-03-26T18:01:13.501Z,7.77
2019-03-26T18:03:44.493Z,7.84
2019-03-26T18:06:14.100Z,7.81
2019-03-26T18:08:43.795Z,7.83
2019-03-26T18:11:13.392Z,7.55
2019-03-26T18:13:42.942Z,7.81
2019-03-26T18:16:17.911Z,7.80
2019-03-26T18:19:06.685Z,7.88
2019-03-26T18:21:35.833Z,7.77
2019-03-26T18:24:08.529Z,7.91
2019-03-26T18:26:38.315Z,7.95
2019-03-26T18:29:08.051Z,7.94
2019-03-26T18:31:37.692Z,7.94
2019-03-26T18:34:10.410Z,7.94
2019-03-26T18:36:40.146Z,7.98
2019-03-26T18:39:10.055Z,7.92
2019-03-26T18:41:39.718Z,7.83
2019-03-26T18:44:09.435Z,8.03
2019-03-26T18:46:39.110Z,7.90
2019-03-26T18:49:08.777Z,7.89
2019-03-26T18:51:38.680Z,7.82
2019-03-26T18:54:08.820Z,7.87
2019-03-26T18:56:38.477Z,7.90
2019-03-26T18:59:08.108Z,7.93
2019-03-26T19:01:38.625Z,7.98
2019-03-26T19:04:08.767Z,8.01
2019-03-26T19:06:38.395Z,8.07
2019-03-26T19:09:08.948Z,7.98
2019-03-26T19:11:38.883Z,7.89
2019-03-26T19:14:09.862Z,7.97
2019-03-26T19:16:40.334Z,8.02
2019-03-26T19:19:09.980Z,8.06
2019-03-26T19:21:40.241Z,8.16
2019-03-26T19:24:11.114Z,7.94
2019-03-26T19:26:41.253Z,7.97
2019-03-26T19:29:12.979Z,7.99
2019-03-26T19:31:42.649Z,7.95
2019-03-26T19:34:13.816Z,7.94
2019-03-26T19:36:45.381Z,7.97
2019-03-26T19:39:15.179Z,7.93
2019-03-26T19:41:44.842Z,7.92
2019-03-26T19:44:14.577Z,7.89
2019-03-26T19:46:46.852Z,7.97
2019-03-26T19:49:16.492Z,7.95
2019-03-26T19:51:46.545Z,7.92
2019-03-26T19:54:17.219Z,7.88
2019-03-26T19:56:49.345Z,7.87
2019-03-26T19:59:19.165Z,7.95
2019-03-26T20:01:48.793Z,7.95
2019-03-26T20:04:19.042Z,8.05
2019-03-26T20:06:50.316Z,7.94
2019-03-26T20:09:20.369Z,7.92
2019-03-26T20:11:50.140Z,7.95
2019-03-26T20:14:19.659Z,8.03
2019-03-26T20:16:50.487Z,7.77
2019-03-26T20:19:20.119Z,7.86
2019-03-26T20:21:50.420Z,7.61
2019-03-26T20:24:20.055Z,7.32
2019-03-26T20:26:51.530Z,7.14
2019-03-26T20:29:23.435Z,7.12
2019-03-26T20:31:53.888Z,7.00
2019-03-26T20:34:23.771Z,6.94
2019-03-26T20:36:54.839Z,6.99
2019-03-26T20:39:25.656Z,6.96
2019-03-26T20:41:55.570Z,6.79
2019-03-26T20:44:27.494Z,6.67
2019-03-26T20:46:58.369Z,6.53
2019-03-26T20:49:28.319Z,6.46
2019-03-26T20:51:57.991Z,6.28
2019-03-26T20:54:27.588Z,6.17
2019-03-26T20:56:58.207Z,6.03
2019-03-26T20:59:27.760Z,6.00
2019-03-26T21:01:57.661Z,5.98
2019-03-26T21:04:27.551Z,5.91
2019-03-26T21:06:59.884Z,5.88
2019-03-26T21:09:29.524Z,5.91
2019-03-26T21:12:00.313Z,5.94
2019-03-26T21:14:30.724Z,5.92
2019-03-26T21:17:01.838Z,5.94
2019-03-26T21:19:31.851Z,6.00
2019-03-26T21:22:01.750Z,5.97
2019-03-26T21:24:31.297Z,5.84
2019-03-26T21:27:02.506Z,5.69
2019-03-26T21:29:32.879Z,5.64
2019-03-26T21:32:03.607Z,5.73
2019-03-26T21:34:33.218Z,5.61
2019-03-26T21:37:04.464Z,5.62
2019-03-26T21:39:34.451Z,5.64
2019-03-26T21:42:04.504Z,5.71
2019-03-26T21:44:34.402Z,5.68
2019-03-26T21:47:05.184Z,5.56
2019-03-26T21:49:35.107Z,5.62
2019-03-26T21:52:05.041Z,5.59
2019-03-26T21:54:34.657Z,5.68
2019-03-26T21:57:06.056Z,5.68
2019-03-26T21:59:35.697Z,5.75
2019-03-26T22:02:05.400Z,5.83
2019-03-26T22:04:36.245Z,5.85
2019-03-26T22:07:08.223Z,5.83
2019-03-26T22:09:37.792Z,5.82
2019-03-26T22:12:09.813Z,5.87
2019-03-26T22:14:40.713Z,5.93
2019-03-26T22:17:10.346Z,5.96
2019-03-26T22:19:40.076Z,5.89
2019-03-26T22:22:09.733Z,6.01
2019-03-26T22:24:39.458Z,5.88
2019-03-26T22:27:09.111Z,5.93
2019-03-26T22:29:40.249Z,5.96
2019-03-26T22:32:10.407Z,5.97
2019-03-26T22:34:41.085Z,5.98
2019-03-26T22:37:10.725Z,5.87
2019-03-26T22:39:40.827Z,6.00
2019-03-26T22:42:11.708Z,6.07
2019-03-26T22:44:41.538Z,6.04
2019-03-26T22:47:12.043Z,6.07
2019-03-26T22:49:51.838Z,6.12
2019-03-26T22:52:22.043Z,6.13
2019-03-26T22:54:52.093Z,6.12
2019-03-26T22:57:21.866Z,6.17
2019-03-26T22:59:54.049Z,6.18
2019-03-26T23:02:24.633Z,6.17
2019-03-26T23:04:55.949Z,6.00
2019-03-26T23:07:26.428Z,5.81
2019-03-26T23:09:56.067Z,5.57
2019-03-26T23:12:25.794Z,5.70
2019-03-26T23:14:56.744Z,5.65
2019-03-26T23:17:26.357Z,5.55
2019-03-26T23:19:55.946Z,5.77
2019-03-26T23:22:28.161Z,5.69
2019-03-26T23:24:57.799Z,5.64
2019-03-26T23:27:27.434Z,5.78
2019-03-26T23:29:57.002Z,5.96
2019-03-26T23:32:26.719Z,6.06
2019-03-26T23:34:56.510Z,6.16
2019-03-26T23:37:26.586Z,6.21
2019-03-26T23:39:56.211Z,6.17
2019-03-26T23:42:25.922Z,6.16
2019-03-26T23:44:58.469Z,5.88
2019-03-26T23:47:26.901Z,5.79
2019-03-26T23:49:56.491Z,5.73
2019-03-26T23:52:26.242Z,5.77
2019-03-26T23:54:57.282Z,5.80
2019-03-26T23:57:30.590Z,5.86
